Time;durP1;ratioP1;P1;durP2;ratioP2;P2;SDS_P1;SDS_P2;PMS_P1;PMS_P2;Temp;Humidity;BMP_temperature;BMP_pressure;BME280_temperature;BME280_humidity;BME280_pressure;Samples;Min_cycle;Max_cycle;Signal;HPM_P1;HPM_P2
2021/03/15 00:05:11;;;;;;;;;;;;;;;;;;;;;
2021/03/15 00:12:45;;;;;;;;;;;;;;;;;;;;;
2021/03/15 00:16:08;;;;;;;6.43;4.03;;;4.80;99.90;;;;;;4819751;29;20045;-77
2021/03/15 00:19:19;;;;;;;9.57;4.53;;;4.70;99.90;;;;;;4906006;29;20119;-76
2021/03/15 00:25:47;;;;;;;5.03;4.30;;;4.70;99.90;;;;;;4894395;29;20045;-77
2021/03/15 00:31:27;;;;;;;4.78;4.07;;;4.60;99.90;;;;;;4943191;29;20038;-77
2021/03/15 00:33:57;;;;;;;7.22;4.80;;;4.60;99.90;;;;;;4957216;28;20478;-76
2021/03/15 00:36:23;;;;;;;8.05;4.70;;;4.70;99.90;;;;;;4945871;28;20145;-76
2021/03/15 00:38:49;;;;;;;4.78;3.63;;;4.70;99.90;;;;;;4971057;28;20619;-76
2021/03/15 00:41:20;;;;;;;5.50;3.92;;;4.70;99.90;;;;;;4940846;28;20020;-75
2021/03/15 00:43:46;;;;;;;4.00;2.97;;;4.80;99.90;;;;;;4953666;28;20031;-75
2021/03/15 00:46:12;;;;;;;4.15;3.75;;;4.70;99.90;;;;;;4960282;28;20038;-76
2021/03/15 00:48:38;;;;;;;4.55;4.13;;;4.60;99.90;;;;;;4955198;29;20031;-79
2021/03/15 00:51:04;;;;;;;9.35;5.63;;;4.50;99.90;;;;;;4951584;29;20071;-78
2021/03/15 00:53:30;;;;;;;6.05;4.35;;;4.40;99.90;;;;;;4950861;28;20054;-77
2021/03/15 00:55:56;;;;;;;5.88;3.92;;;4.40;99.90;;;;;;4955606;29;20039;-77
2021/03/15 00:58:22;;;;;;;6.07;3.83;;;4.40;99.90;;;;;;4950505;28;20034;-76
2021/03/15 01:00:49;;;;;;;4.63;3.03;;;4.60;99.90;;;;;;4947465;29;20023;-76
2021/03/15 01:03:15;;;;;;;5.25;3.20;;;4.70;99.90;;;;;;4953156;29;20030;-76
2021/03/15 01:05:49;;;;;;;4.30;2.80;;;4.80;99.90;;;;;;4947804;29;20054;-76
2021/03/15 01:08:15;;;;;;;4.22;3.55;;;4.80;99.90;;;;;;4958109;28;20037;-78
2021/03/15 01:10:44;;;;;;;6.65;3.60;;;4.80;99.90;;;;;;4962948;28;20490;-77
2021/03/15 01:13:17;;;;;;;9.40;3.88;;;4.70;99.90;;;;;;4957409;29;20027;-77
2021/03/15 01:15:43;;;;;;;5.57;2.88;;;4.60;99.90;;;;;;4948708;29;20039;-77
2021/03/15 01:18:10;;;;;;;5.82;3.75;;;4.70;99.90;;;;;;4946743;29;20031;-77
2021/03/15 01:20:36;;;;;;;4.35;3.08;;;4.70;99.90;;;;;;4944219;28;20042;-77
2021/03/15 01:23:03;;;;;;;2.47;2.28;;;4.60;99.90;;;;;;4939062;28;20031;-77
2021/03/15 01:25:35;;;;;;;4.05;2.97;;;4.70;99.90;;;;;;4943114;28;20091;-77
2021/03/15 01:28:11;;;;;;;3.42;2.55;;;4.70;99.90;;;;;;4937111;28;20049;-77
2021/03/15 01:30:38;;;;;;;3.75;2.55;;;4.70;99.90;;;;;;4937332;28;20102;-77
2021/03/15 01:33:05;;;;;;;3.13;2.50;;;4.60;99.90;;;;;;4940025;28;20034;-77
2021/03/15 01:35:31;;;;;;;2.42;2.03;;;4.50;99.90;;;;;;4946372;28;20095;-77
2021/03/15 01:37:57;;;;;;;2.75;2.03;;;4.60;99.90;;;;;;4940740;28;20031;-77
2021/03/15 01:40:24;;;;;;;3.15;2.47;;;4.60;99.90;;;;;;4940664;28;20031;-76
2021/03/15 01:42:50;;;;;;;3.30;2.65;;;4.60;99.90;;;;;;4943035;28;20031;-76
2021/03/15 01:45:16;;;;;;;2.70;2.47;;;4.60;99.90;;;;;;4941122;28;20020;-76
2021/03/15 01:47:43;;;;;;;2.50;2.20;;;4.50;99.90;;;;;;4941473;28;20246;-78
2021/03/15 01:50:11;;;;;;;2.53;2.17;;;4.50;99.90;;;;;;4938647;28;20032;-77
2021/03/15 01:52:39;;;;;;;3.42;2.58;;;4.50;99.90;;;;;;4952739;28;20036;-77
2021/03/15 01:55:06;;;;;;;3.35;2.35;;;4.50;99.90;;;;;;4957454;28;20031;-78
2021/03/15 01:57:36;;;;;;;2.80;2.25;;;4.40;99.90;;;;;;4961394;28;20031;-77
2021/03/15 02:00:13;;;;;;;2.83;2.40;;;4.40;99.90;;;;;;4937811;28;20062;-77
2021/03/15 02:02:42;;;;;;;3.83;2.10;;;4.50;99.90;;;;;;4938811;28;20027;-77
2021/03/15 02:05:09;;;;;;;3.65;2.35;;;4.40;99.90;;;;;;4941722;28;20555;-77
2021/03/15 02:07:35;;;;;;;3.85;2.33;;;4.40;99.90;;;;;;4938517;28;20118;-77
2021/03/15 02:10:02;;;;;;;3.80;2.13;;;4.40;99.90;;;;;;4945406;28;20058;-77
2021/03/15 02:13:01;;;;;;;3.72;2.58;;;4.40;99.90;;;;;;4948194;28;20035;-77
2021/03/15 02:15:45;;;;;;;2.40;2.20;;;4.40;99.90;;;;;;4947164;28;20561;-77
2021/03/15 02:18:43;;;;;;;5.90;2.95;;;4.30;99.90;;;;;;4955182;28;20430;-77
2021/03/15 02:21:15;;;;;;;3.88;2.47;;;4.20;99.90;;;;;;4947443;28;20582;-77
2021/03/15 02:23:52;;;;;;;2.55;2.10;;;4.10;99.90;;;;;;4943641;28;20054;-77
2021/03/15 02:26:38;;;;;;;2.42;2.22;;;4.20;99.90;;;;;;4945106;28;20414;-77
2021/03/15 02:29:41;;;;;;;2.58;2.20;;;4.10;99.90;;;;;;4945174;28;20022;-76
2021/03/15 02:32:29;;;;;;;2.97;2.20;;;4.20;99.90;;;;;;4945363;28;20091;-77
2021/03/15 02:35:06;;;;;;;2.45;2.15;;;4.10;99.90;;;;;;4947227;28;20545;-77
2021/03/15 02:37:42;;;;;;;4.53;2.08;;;4.00;99.90;;;;;;4958637;28;20044;-76
2021/03/15 02:40:27;;;;;;;3.88;2.22;;;3.90;99.90;;;;;;4938898;28;20019;-77
2021/03/15 02:42:55;;;;;;;2.72;2.13;;;3.90;99.90;;;;;;4945845;28;20394;-77
2021/03/15 02:45:22;;;;;;;6.05;2.38;;;4.00;99.90;;;;;;4929963;28;20086;-77
2021/03/15 02:47:50;;;;;;;5.80;2.40;;;4.00;99.90;;;;;;4939445;28;20034;-78
2021/03/15 02:50:17;;;;;;;4.68;2.45;;;4.00;99.90;;;;;;4940550;28;20028;-77
2021/03/15 02:52:50;;;;;;;3.72;2.50;;;4.00;99.90;;;;;;4954380;28;20043;-77
2021/03/15 02:55:19;;;;;;;3.03;2.60;;;3.90;99.90;;;;;;4938558;28;20190;-78
2021/03/15 02:57:48;;;;;;;2.75;2.40;;;3.90;99.90;;;;;;4952265;28;20137;-78
2021/03/15 03:00:15;;;;;;;3.53;2.60;;;3.90;99.90;;;;;;4961575;28;20370;-77
2021/03/15 03:02:44;;;;;;;3.03;2.28;;;3.90;99.90;;;;;;4945438;28;20027;-77
2021/03/15 03:05:13;;;;;;;3.10;2.20;;;3.80;99.90;;;;;;4944867;28;20023;-78
2021/03/15 03:07:41;;;;;;;2.80;2.08;;;3.90;99.90;;;;;;4956652;28;20043;-76
2021/03/15 03:10:10;;;;;;;2.75;2.40;;;3.90;99.90;;;;;;4952094;28;20092;-77
2021/03/15 03:12:38;;;;;;;3.42;2.15;;;3.90;99.90;;;;;;4950349;28;20035;-76
2021/03/15 03:15:08;;;;;;;4.15;2.38;;;3.90;99.90;;;;;;4947047;28;20027;-77
2021/03/15 03:17:42;;;;;;;6.45;3.00;;;3.80;99.90;;;;;;4949663;28;20036;-77
2021/03/15 03:20:09;;;;;;;5.95;2.92;;;3.70;99.90;;;;;;4945499;28;20028;-76
2021/03/15 03:22:38;;;;;;;4.03;2.97;;;3.60;99.90;;;;;;4965453;28;20502;-76
2021/03/15 03:25:10;;;;;;;3.17;2.38;;;3.70;99.90;;;;;;4946606;28;20478;-76
2021/03/15 03:27:39;;;;;;;4.65;2.60;;;3.70;99.90;;;;;;4944011;28;20490;-76
2021/03/15 03:30:11;;;;;;;3.22;2.70;;;3.70;99.90;;;;;;4945372;28;20413;-77
2021/03/15 03:32:39;;;;;;;3.50;2.35;;;3.60;99.90;;;;;;4940664;28;20042;-76
2021/03/15 03:35:06;;;;;;;5.78;2.95;;;3.50;99.90;;;;;;4939459;28;20035;-76
2021/03/15 03:37:33;;;;;;;4.40;2.85;;;3.40;99.90;;;;;;4941766;28;20035;-76
2021/03/15 03:39:59;;;;;;;3.28;2.60;;;3.50;99.90;;;;;;4941121;28;20755;-77
2021/03/15 03:42:25;;;;;;;3.63;3.03;;;3.50;99.90;;;;;;4939268;28;20561;-77
2021/03/15 03:44:54;;;;;;;3.53;2.47;;;3.50;99.90;;;;;;4941980;28;20158;-77
2021/03/15 03:47:22;;;;;;;3.63;2.50;;;3.60;99.90;;;;;;4937560;28;20503;-77
2021/03/15 03:49:48;;;;;;;3.65;2.45;;;3.60;99.90;;;;;;4952132;28;20552;-77
2021/03/15 03:52:15;;;;;;;4.25;2.63;;;3.50;99.90;;;;;;4941746;28;20062;-77
2021/03/15 03:54:50;;;;;;;3.45;2.92;;;3.50;99.90;;;;;;4942735;28;20051;-76
2021/03/15 03:57:22;;;;;;;3.95;2.63;;;3.40;99.90;;;;;;4940251;28;20023;-77
2021/03/15 03:59:50;;;;;;;6.85;3.08;;;3.40;99.90;;;;;;4939231;28;20020;-76
2021/03/15 04:02:21;;;;;;;4.90;2.63;;;3.40;99.90;;;;;;4938423;28;20019;-77
2021/03/15 04:04:51;;;;;;;4.47;2.90;;;3.40;99.90;;;;;;4936512;28;20116;-77
2021/03/15 04:07:23;;;;;;;7.53;2.72;;;3.30;99.90;;;;;;4941217;28;20042;-76
2021/03/15 04:09:53;;;;;;;3.60;2.75;;;3.40;99.90;;;;;;4941150;28;20034;-77
2021/03/15 04:12:22;;;;;;;5.43;2.67;;;3.40;99.90;;;;;;4940218;28;20023;-77
2021/03/15 04:14:53;;;;;;;3.75;2.95;;;3.40;99.90;;;;;;4941150;28;20027;-77
2021/03/15 04:17:24;;;;;;;10.43;2.85;;;3.40;99.90;;;;;;4939390;28;20445;-77
2021/03/15 04:19:57;;;;;;;3.97;2.97;;;3.40;99.90;;;;;;4942073;28;20051;-77
2021/03/15 04:22:27;;;;;;;2.78;2.58;;;3.40;99.90;;;;;;4939931;28;20506;-77
2021/03/15 04:24:59;;;;;;;4.88;3.63;;;3.30;99.90;;;;;;4947595;28;20033;-77
2021/03/15 04:27:25;;;;;;;6.30;4.07;;;3.30;99.90;;;;;;4938568;28;20035;-77
2021/03/15 04:29:53;;;;;;;4.22;3.05;;;3.20;99.90;;;;;;4938609;28;20086;-77
2021/03/15 04:32:19;;;;;;;5.93;4.00;;;3.40;99.90;;;;;;4939393;28;20509;-77
2021/03/15 04:34:46;;;;;;;5.00;3.40;;;3.40;99.90;;;;;;4945135;28;20304;-77
2021/03/15 04:37:12;;;;;;;4.57;3.47;;;3.40;99.90;;;;;;4933127;28;20032;-76
2021/03/15 04:39:39;;;;;;;4.45;3.50;;;3.50;99.90;;;;;;4935005;28;20034;-77
2021/03/15 04:42:06;;;;;;;10.02;3.38;;;3.50;99.90;;;;;;4938636;28;20030;-76
2021/03/15 04:44:33;;;;;;;5.53;3.53;;;3.60;99.90;;;;;;4919347;29;20027;-77
2021/03/15 04:47:01;;;;;;;4.50;3.55;;;3.60;99.90;;;;;;4951850;28;20023;-76
2021/03/15 04:49:28;;;;;;;6.50;5.38;;;3.70;99.90;;;;;;4969020;28;20067;-76
2021/03/15 04:51:55;;;;;;;5.72;4.30;;;3.70;99.90;;;;;;4944998;28;20035;-77
2021/03/15 04:54:21;;;;;;;5.93;4.78;;;3.80;99.90;;;;;;4940151;28;21062;-76
2021/03/15 04:56:48;;;;;;;4.65;4.18;;;3.90;99.90;;;;;;4940572;28;20426;-77
2021/03/15 04:59:17;;;;;;;6.72;5.18;;;3.90;99.90;;;;;;4942848;28;20028;-77
2021/03/15 05:01:43;;;;;;;12.68;7.20;;;3.90;99.90;;;;;;4940100;28;20046;-79
2021/03/15 05:04:11;;;;;;;11.07;4.85;;;4.00;99.90;;;;;;4935865;28;20399;-77
2021/03/15 05:06:39;;;;;;;6.03;4.20;;;4.10;99.90;;;;;;4941559;28;20039;-77
2021/03/15 05:09:08;;;;;;;5.65;4.20;;;4.00;99.90;;;;;;4936575;28;20022;-77
2021/03/15 05:11:37;;;;;;;10.05;4.90;;;4.00;99.90;;;;;;4939544;28;20397;-76
2021/03/15 05:14:05;;;;;;;5.40;4.25;;;3.90;99.90;;;;;;4938587;28;20486;-77
2021/03/15 05:16:36;;;;;;;5.55;4.82;;;3.90;99.90;;;;;;4934335;28;20127;-77
2021/03/15 05:19:07;;;;;;;7.90;5.03;;;3.80;99.90;;;;;;4937235;28;20042;-77
2021/03/15 05:21:34;;;;;;;10.83;5.67;;;3.70;99.90;;;;;;4938561;28;20055;-77
2021/03/15 05:24:02;;;;;;;5.03;4.60;;;3.70;99.90;;;;;;4939589;28;20035;-76
2021/03/15 05:26:29;;;;;;;5.88;5.28;;;3.60;99.90;;;;;;4934681;28;20035;-76
2021/03/15 05:28:57;;;;;;;9.13;4.57;;;3.60;99.90;;;;;;4936679;28;20032;-76
2021/03/15 05:31:25;;;;;;;5.25;4.25;;;3.60;99.90;;;;;;4944146;28;20032;-76
2021/03/15 05:33:52;;;;;;;5.90;4.43;;;3.70;99.90;;;;;;4954423;28;20027;-76
2021/03/15 05:36:19;;;;;;;6.55;5.00;;;3.70;99.90;;;;;;4956793;28;20134;-77
2021/03/15 05:38:45;;;;;;;8.55;5.50;;;3.60;99.90;;;;;;4940030;28;20039;-77
2021/03/15 05:41:13;;;;;;;10.88;6.07;;;3.60;99.90;;;;;;4936099;28;20027;-76
2021/03/15 05:44:02;;;;;;;6.25;4.43;;;3.50;99.90;;;;;;4938879;28;20032;-77
2021/03/15 05:46:50;;;;;;;6.15;5.43;;;3.50;99.90;;;;;;4945556;28;20126;-76
2021/03/15 05:49:37;;;;;;;5.55;4.82;;;3.50;99.90;;;;;;4956055;28;20082;-76
2021/03/15 05:52:51;;;;;;;6.97;5.80;;;3.60;99.90;;;;;;4951217;28;20489;-76
2021/03/15 05:55:44;;;;;;;6.05;5.43;;;3.80;99.90;;;;;;4864194;29;20052;-77
2021/03/15 05:58:32;;;;;;;6.68;5.13;;;3.70;99.90;;;;;;4939456;28;20054;-77
2021/03/15 06:01:21;;;;;;;6.43;5.75;;;3.70;99.90;;;;;;4941767;28;20036;-78
2021/03/15 06:03:56;;;;;;;8.70;6.10;;;3.70;99.90;;;;;;4941194;28;20031;-77
2021/03/15 06:06:23;;;;;;;6.45;5.82;;;3.70;99.90;;;;;;4939089;28;20035;-78
2021/03/15 06:08:57;;;;;;;17.92;8.10;;;3.70;99.90;;;;;;4945168;28;20032;-76
2021/03/15 06:11:27;;;;;;;12.02;8.43;;;3.80;99.90;;;;;;4943392;28;20036;-77
2021/03/15 06:13:53;;;;;;;7.93;5.90;;;3.80;99.90;;;;;;4944219;28;20046;-76
2021/03/15 06:16:20;;;;;;;7.90;6.32;;;3.90;99.90;;;;;;4941883;28;20043;-76
2021/03/15 06:18:48;;;;;;;13.13;6.70;;;3.90;99.90;;;;;;4945572;28;20036;-77
2021/03/15 06:21:14;;;;;;;6.55;4.35;;;3.90;99.90;;;;;;4942959;28;20024;-76
2021/03/15 06:23:40;;;;;;;6.57;5.10;;;4.00;99.90;;;;;;4944891;28;20028;-76
2021/03/15 06:26:08;;;;;;;10.05;5.57;;;4.10;99.90;;;;;;4942270;28;20067;-76
2021/03/15 06:28:34;;;;;;;6.30;4.18;;;4.30;99.90;;;;;;4942451;28;20031;-76
2021/03/15 06:31:00;;;;;;;10.25;4.80;;;4.40;99.90;;;;;;4943174;28;20094;-78
2021/03/15 06:33:27;;;;;;;6.97;6.28;;;4.40;99.90;;;;;;4943147;28;20031;-76
2021/03/15 06:36:00;;;;;;;11.82;6.45;;;4.40;99.90;;;;;;4958458;28;20123;-78
2021/03/15 06:38:28;;;;;;;9.98;6.82;;;4.60;99.90;;;;;;4939382;28;20094;-77
2021/03/15 06:40:55;;;;;;;9.30;6.28;;;4.60;99.90;;;;;;4944183;28;20034;-76
2021/03/15 06:43:21;;;;;;;10.75;6.07;;;4.70;99.90;;;;;;4955522;28;20308;-77
2021/03/15 06:45:52;;;;;;;10.73;5.55;;;4.70;99.90;;;;;;4955118;28;20035;-77
2021/03/15 06:48:22;;;;;;;4.95;4.20;;;4.90;99.90;;;;;;4959355;29;20035;-76
2021/03/15 06:50:49;;;;;;;6.43;5.55;;;4.90;99.90;;;;;;4954428;28;20042;-77
2021/03/15 06:53:16;;;;;;;7.85;4.45;;;5.00;99.90;;;;;;4952138;29;20045;-76
2021/03/15 06:55:41;;;;;;;7.65;5.40;;;5.00;99.90;;;;;;4948954;28;20443;-76
2021/03/15 06:58:31;;;;;;;10.48;6.00;;;5.10;99.90;;;;;;4949764;29;20028;-76
2021/03/15 07:01:19;;;;;;;5.30;4.65;;;5.10;99.90;;;;;;4939642;28;20106;-76
2021/03/15 07:03:49;;;;;;;7.57;4.82;;;5.20;99.90;;;;;;4952960;29;20031;-77
2021/03/15 07:06:18;;;;;;;9.48;4.70;;;5.30;99.90;;;;;;4948974;29;20028;-76
2021/03/15 07:08:45;;;;;;;5.55;3.97;;;5.40;99.90;;;;;;4957312;29;20027;-77
2021/03/15 07:11:19;;;;;;;5.70;4.65;;;5.60;99.90;;;;;;4956019;28;20031;-77
2021/03/15 07:13:46;;;;;;;6.68;4.15;;;5.80;99.90;;;;;;4958416;28;20034;-77
2021/03/15 07:16:26;;;;;;;10.02;4.50;;;6.00;99.90;;;;;;4953419;28;20713;-77
2021/03/15 07:18:52;;;;;;;9.00;4.38;;;6.40;99.90;;;;;;4951487;29;20033;-77
2021/03/15 07:21:36;;;;;;;5.40;4.22;;;6.50;99.90;;;;;;4954652;29;20027;-77
2021/03/15 07:24:07;;;;;;;6.30;4.85;;;6.50;99.90;;;;;;4949331;29;20051;-78
2021/03/15 07:26:44;;;;;;;19.02;6.47;;;6.60;99.90;;;;;;4958278;28;20034;-76
2021/03/15 07:29:14;;;;;;;8.05;5.85;;;6.60;99.90;;;;;;4954666;29;20032;-77
2021/03/15 07:31:52;;;;;;;7.63;5.00;;;6.60;99.90;;;;;;4959780;29;20030;-77
2021/03/15 07:34:19;;;;;;;8.25;4.80;;;6.70;99.90;;;;;;4952446;29;20549;-77
2021/03/15 07:36:57;;;;;;;4.53;4.10;;;6.90;99.90;;;;;;4953636;29;20034;-77
2021/03/15 07:39:27;;;;;;;5.65;4.38;;;7.00;99.90;;;;;;4958452;28;20475;-77
2021/03/15 07:41:56;;;;;;;7.15;4.63;;;7.20;99.90;;;;;;4951879;29;20034;-77
2021/03/15 07:44:28;;;;;;;7.50;4.45;;;7.20;99.90;;;;;;4966803;29;20059;-76
2021/03/15 07:47:00;;;;;;;4.53;4.13;;;7.40;99.90;;;;;;4964067;28;20059;-76
2021/03/15 07:49:33;;;;;;;5.25;3.72;;;7.50;99.90;;;;;;4953133;28;20035;-77
2021/03/15 07:52:07;;;;;;;11.95;4.85;;;7.50;99.90;;;;;;4962102;29;20035;-76
2021/03/15 07:54:35;;;;;;;10.93;5.30;;;7.50;99.90;;;;;;4955504;29;20036;-76
2021/03/15 07:57:33;;;;;;;7.95;4.68;;;7.60;99.90;;;;;;4961385;28;20024;-77
2021/03/15 07:59:59;;;;;;;8.55;4.13;;;7.70;99.90;;;;;;4952090;29;20102;-77
2021/03/15 08:02:31;;;;;;;6.93;4.50;;;7.70;99.90;;;;;;4953155;29;20518;-77
2021/03/15 08:04:59;;;;;;;7.40;4.28;;;7.70;99.90;;;;;;4949035;29;20097;-77
2021/03/15 08:07:25;;;;;;;6.63;5.85;;;7.80;99.90;;;;;;4951965;28;20118;-77
2021/03/15 08:09:55;;;;;;;6.47;4.95;;;7.90;99.90;;;;;;4952642;28;20035;-77
2021/03/15 08:12:24;;;;;;;6.63;4.72;;;8.10;99.90;;;;;;4959230;29;20069;-77
2021/03/15 08:15:05;;;;;;;7.75;4.78;;;8.10;99.90;;;;;;4960381;28;20034;-77
2021/03/15 08:17:35;;;;;;;5.15;3.92;;;8.20;99.90;;;;;;4953666;29;20023;-77
2021/03/15 08:20:04;;;;;;;5.07;4.60;;;8.40;99.90;;;;;;4952484;28;20025;-76
2021/03/15 08:22:33;;;;;;;7.97;5.35;;;8.60;99.90;;;;;;4948634;29;20031;-76
2021/03/15 08:25:01;;;;;;;7.97;4.32;;;8.70;99.90;;;;;;4957139;29;20070;-76
2021/03/15 08:28:00;;;;;;;10.45;4.45;;;8.70;99.90;;;;;;4964789;29;20030;-77
2021/03/15 08:30:30;;;;;;;6.63;5.82;;;8.90;99.90;;;;;;4945113;29;20043;-76
2021/03/15 08:33:03;;;;;;;5.43;4.35;;;9.00;99.90;;;;;;4955588;29;20035;-75
2021/03/15 08:35:32;;;;;;;6.07;4.35;;;9.00;99.90;;;;;;4950689;29;20086;-75
2021/03/15 08:38:03;;;;;;;8.68;3.83;;;8.90;99.90;;;;;;4952069;29;20027;-74
2021/03/15 08:40:42;;;;;;;4.00;3.42;;;8.90;99.90;;;;;;4944050;29;20107;-75
2021/03/15 08:43:17;;;;;;;5.32;3.85;;;8.90;99.90;;;;;;4953209;29;20382;-75
2021/03/15 08:46:02;;;;;;;5.45;4.30;;;8.90;99.90;;;;;;4954806;29;20027;-74
2021/03/15 08:49:07;;;;;;;13.30;5.20;;;8.90;99.90;;;;;;4941593;28;20028;-76
2021/03/15 08:51:33;;;;;;;4.38;3.22;;;8.80;99.90;;;;;;4961217;28;20019;-76
2021/03/15 08:54:02;;;;;;;8.68;4.10;;;8.80;99.90;;;;;;4965004;28;20035;-75
2021/03/15 08:56:28;;;;;;;8.25;3.97;;;8.90;99.90;;;;;;4954257;29;20123;-75
2021/03/15 08:58:56;;;;;;;7.13;3.83;;;9.00;99.90;;;;;;4948352;29;20027;-76
2021/03/15 09:01:47;;;;;;;8.18;4.93;;;8.90;99.90;;;;;;4938426;29;20446;-75
2021/03/15 09:04:45;;;;;;;5.70;4.93;;;8.80;99.90;;;;;;4956638;28;20034;-76
2021/03/15 09:07:32;;;;;;;7.30;4.75;;;8.80;99.90;;;;;;4952554;28;20043;-75
2021/03/15 09:10:19;;;;;;;7.10;5.45;;;8.70;99.90;;;;;;4958951;28;20058;-75
2021/03/15 09:13:10;;;;;;;8.18;6.00;;;8.70;99.90;;;;;;4934033;29;20533;-75
2021/03/15 09:15:40;;;;;;;4.28;3.72;;;8.90;99.90;;;;;;4951988;28;20426;-75
2021/03/15 09:18:34;;;;;;;4.05;3.58;;;8.90;99.90;;;;;;4947252;28;20034;-75
2021/03/15 09:20:59;;;;;;;8.07;2.78;;;9.00;99.90;;;;;;4946537;28;20118;-75
2021/03/15 09:23:48;;;;;;;6.63;3.00;;;8.90;99.90;;;;;;4957008;28;20026;-75
2021/03/15 09:26:33;;;;;;;4.05;3.63;;;9.00;99.90;;;;;;4954272;28;20055;-75
2021/03/15 09:28:59;;;;;;;4.68;3.30;;;9.10;99.90;;;;;;4945129;28;20034;-76
2021/03/15 09:31:25;;;;;;;6.00;3.15;;;9.10;99.90;;;;;;4943149;29;20035;-76
2021/03/15 09:33:51;;;;;;;5.43;4.03;;;9.20;99.90;;;;;;4947906;28;20034;-75
2021/03/15 09:36:32;;;;;;;5.50;3.28;;;9.30;99.90;;;;;;4952737;28;20063;-75
2021/03/15 09:38:58;;;;;;;8.15;4.40;;;9.50;99.90;;;;;;4956217;28;20512;-75
2021/03/15 09:41:35;;;;;;;5.60;3.17;;;9.50;99.90;;;;;;4953441;29;20019;-74
2021/03/15 09:44:01;;;;;;;4.85;3.38;;;9.60;99.90;;;;;;4945645;29;20032;-78
2021/03/15 09:46:27;;;;;;;4.10;2.90;;;9.60;99.90;;;;;;4951788;29;20074;-75
2021/03/15 09:48:54;;;;;;;7.13;4.57;;;9.60;99.90;;;;;;4955535;29;20405;-77
2021/03/15 09:51:27;;;;;;;4.65;3.45;;;9.70;99.90;;;;;;4963592;29;20033;-75
2021/03/15 09:53:54;;;;;;;8.30;3.67;;;9.70;99.90;;;;;;4961121;28;20030;-75
2021/03/15 09:56:23;;;;;;;5.90;4.05;;;9.70;99.90;;;;;;4950071;28;20035;-75
2021/03/15 09:58:49;;;;;;;3.83;3.25;;;9.70;99.90;;;;;;4951960;28;20067;-75
2021/03/15 10:01:24;;;;;;;10.98;2.63;;;9.70;99.90;;;;;;4955772;28;20043;-75
2021/03/15 10:03:54;;;;;;;6.43;3.30;;;9.70;99.90;;;;;;4949568;29;20028;-79
2021/03/15 10:06:22;;;;;;;5.80;3.50;;;9.60;99.90;;;;;;4952133;29;20078;-75
2021/03/15 10:09:01;;;;;;;9.27;4.70;;;9.50;99.90;;;;;;4955367;29;20031;-76
2021/03/15 10:11:28;;;;;;;8.25;4.53;;;9.50;99.90;;;;;;4944087;29;20046;-75
2021/03/15 10:14:02;;;;;;;6.38;4.40;;;9.20;99.90;;;;;;4955570;29;20026;-75
2021/03/15 10:16:28;;;;;;;6.18;4.57;;;9.10;99.90;;;;;;4954990;29;20549;-76
2021/03/15 10:18:54;;;;;;;4.05;3.65;;;9.00;99.90;;;;;;4953474;29;20027;-75
2021/03/15 10:21:30;;;;;;;6.38;4.85;;;8.90;99.90;;;;;;4946299;29;20398;-75
2021/03/15 10:23:56;;;;;;;3.80;2.90;;;8.90;99.90;;;;;;4945379;29;20302;-75
2021/03/15 10:26:22;;;;;;;8.10;3.10;;;8.90;99.90;;;;;;4952738;28;20489;-75
2021/03/15 10:28:50;;;;;;;8.35;3.67;;;9.10;99.90;;;;;;4956609;28;20456;-74
2021/03/15 10:31:19;;;;;;;9.40;4.60;;;9.10;99.90;;;;;;4956110;28;20027;-75
2021/03/15 10:33:45;;;;;;;12.07;4.45;;;9.20;99.90;;;;;;4953703;29;20399;-74
2021/03/15 10:36:16;;;;;;;8.98;3.80;;;9.20;99.90;;;;;;4957118;29;20131;-73
2021/03/15 10:38:42;;;;;;;4.90;3.67;;;9.20;99.90;;;;;;4961465;29;20039;-74
2021/03/15 10:41:08;;;;;;;5.88;3.00;;;9.30;99.90;;;;;;4958671;28;20031;-75
2021/03/15 10:43:35;;;;;;;3.15;2.50;;;9.30;99.90;;;;;;4956301;29;20028;-75
2021/03/15 10:46:23;;;;;;;8.30;3.78;;;9.40;99.90;;;;;;4945443;29;20090;-74
2021/03/15 10:48:49;;;;;;;3.80;3.20;;;9.50;99.90;;;;;;4953195;29;20024;-75
2021/03/15 10:51:15;;;;;;;7.47;3.92;;;9.50;99.90;;;;;;4956934;29;20493;-75
2021/03/15 10:53:50;;;;;;;7.38;3.58;;;9.60;99.90;;;;;;4957706;29;20036;-74
2021/03/15 10:56:22;;;;;;;4.18;3.65;;;9.60;99.90;;;;;;4963114;28;20035;-74
2021/03/15 10:58:48;;;;;;;;;;;9.60;99.90;;;;;;4956591;29;20509;-74
2021/03/15 11:01:29;;;;;;;3.22;2.63;;;9.50;99.90;;;;;;4951846;29;19911;-73
2021/03/15 11:04:10;;;;;;;4.50;3.03;;;9.50;99.90;;;;;;4948393;29;20055;-73
2021/03/15 11:06:35;;;;;;;9.43;3.20;;;9.50;99.90;;;;;;4953820;29;20446;-73
2021/03/15 11:09:02;;;;;;;5.50;3.08;;;9.50;99.90;;;;;;4957263;29;20023;-73
2021/03/15 11:11:30;;;;;;;6.72;2.72;;;9.60;99.90;;;;;;4955945;29;20058;-73
2021/03/15 11:14:07;;;;;;;8.77;2.38;;;9.50;99.90;;;;;;4957276;28;20034;-74
2021/03/15 11:16:34;;;;;;;5.45;3.17;;;9.60;99.90;;;;;;4950475;29;20027;-73
2021/03/15 11:19:03;;;;;;;4.15;2.90;;;9.60;99.90;;;;;;4956480;28;20020;-73
2021/03/15 11:21:30;;;;;;;4.50;2.78;;;9.70;99.90;;;;;;4958139;28;20108;-74
2021/03/15 11:23:56;;;;;;;15.65;3.60;;;9.60;99.90;;;;;;4956092;28;20031;-74
2021/03/15 11:26:23;;;;;;;5.82;2.25;;;9.70;99.90;;;;;;4957173;28;20046;-73
2021/03/15 11:28:54;;;;;;;3.53;2.40;;;9.60;99.90;;;;;;4955688;29;20089;-74
2021/03/15 11:31:23;;;;;;;3.33;2.45;;;9.60;99.90;;;;;;4956464;28;20027;-73
2021/03/15 11:33:57;;;;;;;6.00;3.70;;;9.50;99.90;;;;;;4957397;29;20577;-74
2021/03/15 11:36:25;;;;;;;5.00;2.75;;;9.50;99.90;;;;;;4961158;29;20026;-74
2021/03/15 11:39:04;;;;;;;5.93;4.32;;;9.60;99.90;;;;;;4951748;29;20892;-74
2021/03/15 11:41:32;;;;;;;5.20;3.92;;;9.50;99.90;;;;;;4955816;28;20019;-75
2021/03/15 11:44:01;;;;;;;5.40;4.72;;;9.60;99.90;;;;;;4956274;29;20027;-76
2021/03/15 11:46:27;;;;;;;6.85;5.43;;;9.50;99.90;;;;;;4949639;29;20031;-75
2021/03/15 11:48:53;;;;;;;5.93;4.65;;;9.30;99.90;;;;;;4952836;29;20027;-75
2021/03/15 11:51:20;;;;;;;10.77;5.75;;;9.20;99.90;;;;;;4956438;29;20061;-75
2021/03/15 11:53:46;;;;;;;9.20;5.18;;;9.30;99.90;;;;;;4957090;29;20074;-75
2021/03/15 11:56:13;;;;;;;10.30;6.38;;;9.60;99.90;;;;;;4957303;28;20028;-75
2021/03/15 11:58:40;;;;;;;3.88;3.00;;;9.60;99.90;;;;;;4955372;29;20032;-75
2021/03/15 12:01:07;;;;;;;11.40;4.20;;;9.60;99.90;;;;;;4955339;29;20031;-74
2021/03/15 12:03:33;;;;;;;4.95;3.58;;;9.50;99.90;;;;;;4954557;29;20102;-74
2021/03/15 12:06:00;;;;;;;10.15;5.07;;;9.50;99.90;;;;;;4954472;28;20038;-74
2021/03/15 12:08:26;;;;;;;7.97;5.30;;;9.60;99.90;;;;;;4954746;29;20110;-74
2021/03/15 12:10:52;;;;;;;5.95;3.88;;;9.40;99.90;;;;;;4953943;29;20063;-74
2021/03/15 12:13:19;;;;;;;8.73;3.38;;;9.50;99.90;;;;;;4956507;28;20079;-74
2021/03/15 12:15:45;;;;;;;5.90;3.30;;;9.60;99.90;;;;;;4948084;29;20066;-76
2021/03/15 12:18:12;;;;;;;4.95;3.45;;;9.50;99.90;;;;;;4955127;29;20039;-75
2021/03/15 12:20:39;;;;;;;4.15;2.85;;;9.60;99.90;;;;;;4953181;29;20054;-74
2021/03/15 12:23:05;;;;;;;7.68;3.35;;;9.70;99.90;;;;;;4956907;29;20379;-74
2021/03/15 12:25:32;;;;;;;7.45;2.50;;;9.80;99.90;;;;;;4953238;29;20505;-75
2021/03/15 12:27:59;;;;;;;3.75;2.20;;;9.80;99.90;;;;;;4953909;28;20023;-74
2021/03/15 12:30:25;;;;;;;3.25;1.98;;;9.90;99.90;;;;;;4952539;29;20062;-74
2021/03/15 12:32:51;;;;;;;5.45;3.13;;;9.80;99.90;;;;;;4967028;29;20027;-74
2021/03/15 12:35:18;;;;;;;4.05;2.10;;;9.90;99.90;;;;;;4981772;28;20046;-76
2021/03/15 12:37:44;;;;;;;7.30;2.17;;;10.00;99.90;;;;;;4961280;29;20505;-75
2021/03/15 12:40:10;;;;;;;2.83;2.40;;;10.20;99.90;;;;;;4949123;28;20102;-75
2021/03/15 12:42:39;;;;;;;3.40;1.90;;;10.30;99.90;;;;;;4955165;29;20031;-75
2021/03/15 12:45:09;;;;;;;6.00;1.92;;;10.50;99.90;;;;;;4949507;29;20024;-74
2021/03/15 12:47:36;;;;;;;4.40;2.08;;;10.50;99.90;;;;;;4954832;29;20031;-75
2021/03/15 12:50:03;;;;;;;4.15;3.03;;;10.60;99.90;;;;;;4945385;28;20041;-76
2021/03/15 12:52:29;;;;;;;2.88;2.30;;;10.60;99.90;;;;;;4949384;28;20024;-75
2021/03/15 12:54:58;;;;;;;8.23;2.53;;;10.60;99.90;;;;;;4952081;28;20023;-75
2021/03/15 12:57:24;;;;;;;6.45;1.90;;;10.60;99.90;;;;;;4955310;29;20026;-75
2021/03/15 12:59:53;;;;;;;5.85;1.92;;;10.60;99.90;;;;;;4950396;29;20027;-75
2021/03/15 13:02:20;;;;;;;5.05;1.90;;;10.60;99.90;;;;;;4952706;29;20026;-74
2021/03/15 13:04:46;;;;;;;6.10;2.42;;;10.60;99.90;;;;;;4956487;28;20390;-74
2021/03/15 13:07:12;;;;;;;7.78;2.05;;;10.50;99.90;;;;;;4953155;29;20062;-74
2021/03/15 13:09:38;;;;;;;4.13;2.00;;;10.50;99.90;;;;;;4948237;29;20027;-75
2021/03/15 13:12:05;;;;;;;3.83;1.58;;;10.50;99.90;;;;;;4955731;28;20058;-74
2021/03/15 13:14:32;;;;;;;3.30;1.60;;;10.50;99.90;;;;;;4954190;28;20027;-74
2021/03/15 13:16:58;;;;;;;3.33;2.15;;;10.40;99.90;;;;;;4954335;29;20023;-74
2021/03/15 13:19:24;;;;;;;4.68;2.75;;;10.40;99.90;;;;;;4948234;28;20023;-74
2021/03/15 13:21:50;;;;;;;4.07;1.65;;;10.40;99.90;;;;;;4954797;29;20031;-75
2021/03/15 13:24:16;;;;;;;4.30;1.95;;;10.40;99.90;;;;;;4953942;29;20031;-74
2021/03/15 13:26:42;;;;;;;3.15;1.75;;;10.40;99.90;;;;;;4955129;29;20082;-74
2021/03/15 13:29:08;;;;;;;5.68;2.50;;;10.40;99.90;;;;;;4953604;29;20027;-74
2021/03/15 13:31:34;;;;;;;7.03;2.20;;;10.50;99.90;;;;;;4951587;29;20039;-74
2021/03/15 13:34:00;;;;;;;2.97;1.67;;;10.60;99.90;;;;;;4946970;29;20425;-73